createdAt,value
2023-05-13T00:00:34.356Z,1019.05
2023-05-13T00:01:34.534Z,1019.03
2023-05-13T00:02:34.759Z,1019.01
2023-05-13T00:03:35.092Z,1018.99
2023-05-13T00:04:35.121Z,1019.00
2023-05-13T00:05:35.282Z,1019.01
2023-05-13T00:06:35.518Z,1019.06
2023-05-13T00:07:35.608Z,1019.01
2023-05-13T00:08:35.795Z,1019.05
2023-05-13T00:09:35.967Z,1019.03
2023-05-13T00:10:36.125Z,1019.02
2023-05-13T00:11:36.272Z,1018.99
2023-05-13T00:12:36.448Z,1019.06
2023-05-13T00:13:36.633Z,1018.98
2023-05-13T00:14:36.782Z,1019.03
2023-05-13T00:15:36.997Z,1019.01
2023-05-13T00:16:37.155Z,1019.00
2023-05-13T00:17:37.464Z,1019.02
2023-05-13T00:18:37.519Z,1019.01
2023-05-13T00:19:37.644Z,1019.01
2023-05-13T00:20:37.817Z,1019.05
2023-05-13T00:21:38.020Z,1019.03
2023-05-13T00:22:38.179Z,1019.08
2023-05-13T00:23:38.364Z,1019.12
2023-05-13T00:24:38.531Z,1019.08
2023-05-13T00:25:38.713Z,1019.10
2023-05-13T00:26:38.887Z,1019.09
2023-05-13T00:27:39.094Z,1019.08
2023-05-13T00:28:39.252Z,1019.12
2023-05-13T00:29:39.451Z,1019.11
2023-05-13T00:30:39.603Z,1019.10
2023-05-13T00:31:39.839Z,1019.14
2023-05-13T00:32:40.008Z,1019.11
2023-05-13T00:33:40.126Z,1019.12
2023-05-13T00:34:40.310Z,1019.15
2023-05-13T00:35:40.493Z,1019.16
2023-05-13T00:36:40.638Z,1019.14
2023-05-13T00:37:40.839Z,1019.16
2023-05-13T00:38:40.996Z,1019.16
2023-05-13T00:39:41.170Z,1019.20
2023-05-13T00:40:41.369Z,1019.16
2023-05-13T00:41:41.528Z,1019.18
2023-05-13T00:42:41.692Z,1019.17
2023-05-13T00:43:41.886Z,1019.17
2023-05-13T00:44:42.036Z,1019.17
2023-05-13T00:45:42.277Z,1019.22
2023-05-13T00:46:42.417Z,1019.16
2023-05-13T00:47:42.567Z,1019.14
2023-05-13T00:48:42.747Z,1019.16
2023-05-13T00:49:42.938Z,1019.16
2023-05-13T00:50:43.121Z,1019.13
2023-05-13T00:51:43.289Z,1019.16
2023-05-13T00:52:43.440Z,1019.12
2023-05-13T00:53:43.630Z,1019.19
2023-05-13T00:54:43.804Z,1019.16
2023-05-13T00:55:43.998Z,1019.15
2023-05-13T00:56:44.159Z,1019.19
2023-05-13T00:57:44.321Z,1019.18
2023-05-13T00:58:44.500Z,1019.20
2023-05-13T00:59:44.720Z,1019.20
2023-05-13T01:00:44.901Z,1019.25
2023-05-13T01:01:45.196Z,1019.24
2023-05-13T01:02:45.286Z,1019.26
2023-05-13T01:03:45.379Z,1019.25
2023-05-13T01:04:45.575Z,1019.22
2023-05-13T01:05:45.771Z,1019.20
2023-05-13T01:06:45.940Z,1019.17
2023-05-13T01:07:46.125Z,1019.23
2023-05-13T01:08:46.320Z,1019.28
2023-05-13T01:09:46.501Z,1019.27
2023-05-13T01:10:46.683Z,1019.30
2023-05-13T01:11:46.885Z,1019.34
2023-05-13T01:12:47.038Z,1019.31
2023-05-13T01:13:47.227Z,1019.36
2023-05-13T01:14:47.391Z,1019.31
2023-05-13T01:15:47.598Z,1019.39
2023-05-13T01:16:47.790Z,1019.36
2023-05-13T01:17:48.001Z,1019.34
2023-05-13T01:18:48.168Z,1019.35
2023-05-13T01:19:48.277Z,1019.34
2023-05-13T01:20:48.422Z,1019.36
2023-05-13T01:21:48.603Z,1019.38
2023-05-13T01:22:48.768Z,1019.40
2023-05-13T01:23:48.973Z,1019.45
2023-05-13T01:24:49.112Z,1019.38
2023-05-13T01:25:49.301Z,1019.37
2023-05-13T01:26:49.507Z,1019.43
2023-05-13T01:27:49.670Z,1019.39
2023-05-13T01:28:49.829Z,1019.41
2023-05-13T01:29:50.015Z,1019.40
2023-05-13T01:30:50.192Z,1019.44
2023-05-13T01:31:50.366Z,1019.47
2023-05-13T01:32:50.608Z,1019.47
2023-05-13T01:33:50.725Z,1019.47
2023-05-13T01:34:50.905Z,1019.50
2023-05-13T01:35:51.084Z,1019.47
2023-05-13T01:36:51.267Z,1019.49
2023-05-13T01:37:51.506Z,1019.47
2023-05-13T01:38:51.616Z,1019.49
2023-05-13T01:39:51.806Z,1019.49
2023-05-13T01:40:51.967Z,1019.50
2023-05-13T01:41:52.155Z,1019.47
2023-05-13T01:42:52.350Z,1019.50
2023-05-13T01:43:52.541Z,1019.49
2023-05-13T01:44:52.718Z,1019.52
2023-05-13T01:45:52.901Z,1019.53
2023-05-13T01:46:53.176Z,1019.59
2023-05-13T01:47:53.286Z,1019.55
2023-05-13T01:48:53.423Z,1019.58
2023-05-13T01:49:53.596Z,1019.56
2023-05-13T01:50:53.799Z,1019.55
2023-05-13T01:51:53.961Z,1019.55
2023-05-13T01:52:54.164Z,1019.55
2023-05-13T01:53:54.296Z,1019.54
2023-05-13T01:54:54.484Z,1019.55
2023-05-13T01:55:54.660Z,1019.56
2023-05-13T01:56:54.832Z,1019.53
2023-05-13T01:57:55.031Z,1019.58
2023-05-13T01:58:55.184Z,1019.55
2023-05-13T01:59:55.351Z,1019.64
2023-05-13T02:00:55.531Z,1019.60
2023-05-13T02:01:55.766Z,1019.56
2023-05-13T02:02:55.966Z,1019.56
2023-05-13T02:03:56.082Z,1019.57
2023-05-13T02:04:56.237Z,1019.58
2023-05-13T02:05:56.435Z,1019.57
2023-05-13T02:06:56.573Z,1019.61
2023-05-13T02:07:56.768Z,1019.58
2023-05-13T02:08:56.904Z,1019.58
2023-05-13T02:09:57.075Z,1019.58
2023-05-13T02:10:57.261Z,1019.65
2023-05-13T02:11:57.443Z,1019.63
2023-05-13T02:12:57.630Z,1019.63
2023-05-13T02:13:57.778Z,1019.60
2023-05-13T02:14:57.957Z,1019.63
2023-05-13T02:15:58.206Z,1019.59
2023-05-13T02:16:58.447Z,1019.61
2023-05-13T02:17:58.512Z,1019.62
2023-05-13T02:18:58.634Z,1019.59
2023-05-13T02:19:58.823Z,1019.59
2023-05-13T02:20:58.983Z,1019.59
2023-05-13T02:21:59.189Z,1019.60
2023-05-13T02:22:59.350Z,1019.62
2023-05-13T02:23:59.528Z,1019.64
2023-05-13T02:24:59.718Z,1019.65
2023-05-13T02:25:59.898Z,1019.61
2023-05-13T02:27:00.090Z,1019.63
2023-05-13T02:28:00.257Z,1019.63
2023-05-13T02:29:00.415Z,1019.61
2023-05-13T02:30:00.586Z,1019.64
2023-05-13T02:31:00.760Z,1019.66
2023-05-13T02:32:00.956Z,1019.66
2023-05-13T02:33:01.165Z,1019.69
2023-05-13T02:34:01.268Z,1019.66
2023-05-13T02:35:01.442Z,1019.72
2023-05-13T02:36:01.652Z,1019.69
2023-05-13T02:37:01.800Z,1019.70
2023-05-13T02:38:01.995Z,1019.70
2023-05-13T02:39:02.139Z,1019.70
2023-05-13T02:40:02.324Z,1019.70
2023-05-13T02:41:02.511Z,1019.70
2023-05-13T02:42:02.694Z,1019.71
2023-05-13T02:43:02.856Z,1019.68
2023-05-13T02:44:03.044Z,1019.68
2023-05-13T02:45:03.214Z,1019.68
2023-05-13T02:46:03.431Z,1019.67
2023-05-13T02:47:03.524Z,1019.68
2023-05-13T02:48:03.732Z,1019.67
2023-05-13T02:49:03.906Z,1019.69
2023-05-13T02:50:04.125Z,1019.70
2023-05-13T02:51:04.244Z,1019.73
2023-05-13T02:52:04.430Z,1019.70
2023-05-13T02:53:04.605Z,1019.69
2023-05-13T02:54:04.782Z,1019.69
2023-05-13T02:55:05.041Z,1019.69
2023-05-13T02:56:05.116Z,1019.70
2023-05-13T02:57:05.305Z,1019.72
2023-05-13T02:58:05.479Z,1019.72
2023-05-13T02:59:05.751Z,1019.71
2023-05-13T03:00:05.851Z,1019.71
2023-05-13T03:01:06.047Z,1019.72
2023-05-13T03:02:06.224Z,1019.73
2023-05-13T03:03:06.452Z,1019.73
2023-05-13T03:04:06.537Z,1019.73
2023-05-13T03:05:06.693Z,1019.75
2023-05-13T03:06:06.859Z,1019.71
2023-05-13T03:07:07.024Z,1019.77
2023-05-13T03:08:07.205Z,1019.74
2023-05-13T03:09:07.404Z,1019.72
2023-05-13T03:10:07.560Z,1019.70
2023-05-13T03:11:07.751Z,1019.73
2023-05-13T03:12:07.942Z,1019.79
2023-05-13T03:13:08.121Z,1019.79
2023-05-13T03:14:08.317Z,1019.79
2023-05-13T03:15:08.457Z,1019.82
2023-05-13T03:16:08.695Z,1019.81
2023-05-13T03:17:08.810Z,1019.82
2023-05-13T03:18:08.972Z,1019.83
2023-05-13T03:19:09.229Z,1019.81
2023-05-13T03:20:09.340Z,1019.80
2023-05-13T03:21:09.490Z,1019.80
2023-05-13T03:22:09.656Z,1019.80
2023-05-13T03:23:09.833Z,1019.82
2023-05-13T03:24:10.003Z,1019.81
2023-05-13T03:25:10.174Z,1019.82
2023-05-13T03:26:10.351Z,1019.85
2023-05-13T03:27:10.511Z,1019.80
2023-05-13T03:28:10.686Z,1019.81
2023-05-13T03:29:10.839Z,1019.86
2023-05-13T03:30:11.036Z,1019.85
2023-05-13T03:31:11.232Z,1019.84
2023-05-13T03:32:11.374Z,1019.80
2023-05-13T03:33:11.552Z,1019.81
2023-05-13T03:34:11.723Z,1019.82
2023-05-13T03:35:11.896Z,1019.84
2023-05-13T03:36:12.068Z,1019.89
2023-05-13T03:37:12.229Z,1019.88
2023-05-13T03:38:12.406Z,1019.88
2023-05-13T03:39:12.580Z,1019.90
2023-05-13T03:40:12.762Z,1019.88
2023-05-13T03:41:12.941Z,1019.83
2023-05-13T03:42:13.119Z,1019.90
2023-05-13T03:43:13.263Z,1019.89
2023-05-13T03:44:13.434Z,1019.92
2023-05-13T03:45:13.630Z,1019.91
2023-05-13T03:46:13.774Z,1019.90
2023-05-13T03:47:13.930Z,1019.93
2023-05-13T03:48:14.105Z,1019.96
2023-05-13T03:49:14.259Z,1019.97
2023-05-13T03:50:14.465Z,1019.96
2023-05-13T03:51:14.616Z,1019.99
2023-05-13T03:52:14.783Z,1019.97
2023-05-13T03:53:14.936Z,1019.97
2023-05-13T03:54:15.109Z,1019.94
2023-05-13T03:55:15.373Z,1019.94
2023-05-13T03:56:15.465Z,1019.94
2023-05-13T03:57:15.680Z,1020.00
2023-05-13T03:58:15.847Z,1019.98
2023-05-13T03:59:16.018Z,1019.95
2023-05-13T04:00:16.177Z,1020.00
2023-05-13T04:01:16.364Z,1020.03
2023-05-13T04:02:16.558Z,1020.02
2023-05-13T04:03:16.694Z,1020.04
2023-05-13T04:04:16.878Z,1020.03
2023-05-13T04:05:17.060Z,1020.06
2023-05-13T04:06:17.198Z,1020.06
2023-05-13T04:07:17.374Z,1020.12
2023-05-13T04:08:17.619Z,1020.11
2023-05-13T04:09:17.734Z,1020.13
2023-05-13T04:10:17.937Z,1020.09
2023-05-13T04:11:18.139Z,1020.05
2023-05-13T04:12:18.324Z,1020.07
2023-05-13T04:13:18.514Z,1020.11
2023-05-13T04:14:18.665Z,1020.15
2023-05-13T04:15:18.862Z,1020.17
2023-05-13T04:16:19.133Z,1020.15
2023-05-13T04:17:19.307Z,1020.18
2023-05-13T04:18:19.375Z,1020.20
2023-05-13T04:19:19.568Z,1020.23
2023-05-13T04:20:20.009Z,1020.22
2023-05-13T04:21:19.928Z,1020.26
2023-05-13T04:22:20.094Z,1020.27
2023-05-13T04:23:20.270Z,1020.28
2023-05-13T04:24:20.424Z,1020.30
2023-05-13T04:25:20.586Z,1020.29
2023-05-13T04:26:20.761Z,1020.33
2023-05-13T04:27:20.918Z,1020.29
2023-05-13T04:28:21.075Z,1020.33
2023-05-13T04:29:21.256Z,1020.30
2023-05-13T04:30:21.582Z,1020.36
2023-05-13T04:31:21.614Z,1020.33
2023-05-13T04:32:21.947Z,1020.35
2023-05-13T04:33:21.935Z,1020.31
2023-05-13T04:34:22.109Z,1020.34
2023-05-13T04:35:22.309Z,1020.40
2023-05-13T04:36:22.477Z,1020.44
2023-05-13T04:37:22.653Z,1020.44
2023-05-13T04:38:22.836Z,1020.44
2023-05-13T04:39:22.995Z,1020.46
2023-05-13T04:40:23.321Z,1020.52
2023-05-13T04:41:23.312Z,1020.51
2023-05-13T04:42:23.485Z,1020.52
2023-05-13T04:43:23.646Z,1020.53
2023-05-13T04:44:23.819Z,1020.53
2023-05-13T04:45:23.995Z,1020.49
2023-05-13T04:46:24.292Z,1020.49
2023-05-13T04:47:24.374Z,1020.55
2023-05-13T04:48:24.500Z,1020.53
2023-05-13T04:49:24.669Z,1020.56
2023-05-13T04:50:24.812Z,1020.55
2023-05-13T04:51:24.998Z,1020.52
2023-05-13T04:52:25.155Z,1020.60
2023-05-13T04:53:25.343Z,1020.55
2023-05-13T04:54:25.505Z,1020.52
2023-05-13T04:55:27.528Z,1020.60
2023-05-13T04:56:25.816Z,1020.57
2023-05-13T04:57:26.025Z,1020.53
2023-05-13T04:58:26.181Z,1020.60
2023-05-13T04:59:26.314Z,1020.54
2023-05-13T05:00:26.456Z,1020.56
2023-05-13T05:01:26.685Z,1020.57
2023-05-13T05:02:26.848Z,1020.62
2023-05-13T05:03:27.007Z,1020.59
2023-05-13T05:04:27.117Z,1020.58
2023-05-13T05:05:27.295Z,1020.64
2023-05-13T05:06:27.497Z,1020.59
2023-05-13T05:07:27.602Z,1020.63
2023-05-13T05:08:27.796Z,1020.64
2023-05-13T05:09:27.964Z,1020.63
2023-05-13T05:10:28.088Z,1020.67
2023-05-13T05:11:28.280Z,1020.69
2023-05-13T05:12:28.424Z,1020.69
2023-05-13T05:13:28.591Z,1020.68
2023-05-13T05:14:28.751Z,1020.67
2023-05-13T05:15:28.925Z,1020.70
2023-05-13T05:16:29.114Z,1020.73
2023-05-13T05:17:29.408Z,1020.74
2023-05-13T05:18:29.508Z,1020.70
2023-05-13T05:19:29.654Z,1020.75
2023-05-13T05:20:29.829Z,1020.72
2023-05-13T05:21:30.005Z,1020.73
2023-05-13T05:22:30.183Z,1020.74
2023-05-13T05:23:30.395Z,1020.71
2023-05-13T05:24:30.475Z,1020.81
2023-05-13T05:25:30.696Z,1020.76
2023-05-13T05:26:30.833Z,1020.77
2023-05-13T05:27:30.987Z,1020.74
2023-05-13T05:28:31.196Z,1020.77
2023-05-13T05:29:31.344Z,1020.71
2023-05-13T05:30:31.528Z,1020.74
2023-05-13T05:31:31.701Z,1020.76
2023-05-13T05:32:31.859Z,1020.81
2023-05-13T05:33:32.049Z,1020.79
2023-05-13T05:34:32.194Z,1020.76
2023-05-13T05:35:32.353Z,1020.79
2023-05-13T05:36:32.522Z,1020.75
2023-05-13T05:37:32.681Z,1020.83
2023-05-13T05:38:32.852Z,1020.84
2023-05-13T05:39:33.034Z,1020.90
2023-05-13T05:40:33.225Z,1020.91
2023-05-13T05:41:33.368Z,1020.89
2023-05-13T05:42:33.531Z,1020.91
2023-05-13T05:43:33.703Z,1020.87
2023-05-13T05:44:33.851Z,1020.91
2023-05-13T05:45:34.072Z,1020.89
2023-05-13T05:46:34.438Z,1020.88
2023-05-13T05:47:34.459Z,1020.89
2023-05-13T05:48:34.927Z,1020.90
2023-05-13T05:49:34.761Z,1020.94
2023-05-13T05:50:34.961Z,1020.97
2023-05-13T05:51:35.096Z,1020.88
2023-05-13T05:52:35.243Z,1020.85
2023-05-13T05:53:35.417Z,1020.92
2023-05-13T05:54:35.588Z,1020.91
2023-05-13T05:55:35.761Z,1020.94
2023-05-13T05:56:35.933Z,1020.96
2023-05-13T05:57:36.098Z,1020.96
2023-05-13T05:58:36.262Z,1020.94
2023-05-13T05:59:36.436Z,1021.01
2023-05-13T06:00:36.603Z,1020.98
2023-05-13T06:01:36.833Z,1020.99
2023-05-13T06:02:37.022Z,1020.95
2023-05-13T06:03:37.154Z,1020.94
2023-05-13T06:04:37.445Z,1020.90
2023-05-13T06:05:37.489Z,1020.91
2023-05-13T06:06:37.849Z,1020.90
2023-05-13T06:07:37.848Z,1020.91
2023-05-13T06:08:38.010Z,1020.89
2023-05-13T06:09:38.199Z,1020.96
2023-05-13T06:10:38.339Z,1020.93
2023-05-13T06:11:38.501Z,1020.95
2023-05-13T06:12:38.694Z,1020.93
2023-05-13T06:13:38.852Z,1020.92
2023-05-13T06:14:39.000Z,1020.93
2023-05-13T06:15:39.187Z,1020.99
2023-05-13T06:16:39.338Z,1020.87
2023-05-13T06:17:39.532Z,1020.89
2023-05-13T06:18:39.736Z,1020.84
2023-05-13T06:19:39.855Z,1020.88
2023-05-13T06:20:40.003Z,1020.86
2023-05-13T06:21:40.175Z,1020.85
2023-05-13T06:22:40.362Z,1020.86
2023-05-13T06:23:40.573Z,1020.89
2023-05-13T06:24:40.690Z,1020.91
2023-05-13T06:25:40.872Z,1020.93
2023-05-13T06:26:41.047Z,1020.90
2023-05-13T06:27:41.223Z,1020.93
2023-05-13T06:28:41.424Z,1020.89
2023-05-13T06:29:41.600Z,1020.96
2023-05-13T06:30:41.768Z,1020.93
2023-05-13T06:31:41.974Z,1020.90
2023-05-13T06:32:53.563Z,1020.93
2023-05-13T06:33:43.287Z,1020.91
2023-05-13T06:34:42.466Z,1020.89
2023-05-13T06:35:42.644Z,1020.91
2023-05-13T06:36:42.790Z,1020.95
2023-05-13T06:37:42.986Z,1020.94
2023-05-13T06:38:43.125Z,1020.93
2023-05-13T06:39:43.293Z,1020.95
2023-05-13T06:40:43.434Z,1020.93
2023-05-13T06:41:43.612Z,1020.95
2023-05-13T06:42:43.763Z,1020.91
2023-05-13T06:43:44.020Z,1020.94
2023-05-13T06:44:44.119Z,1020.90
2023-05-13T06:45:44.310Z,1020.93
2023-05-13T06:46:44.507Z,1020.90
2023-05-13T06:47:44.680Z,1020.87
2023-05-13T06:48:44.831Z,1020.90
2023-05-13T06:49:44.978Z,1020.89
2023-05-13T06:50:45.144Z,1020.88
2023-05-13T06:51:45.316Z,1020.89
2023-05-13T06:52:45.483Z,1020.86
2023-05-13T06:53:45.654Z,1020.85
2023-05-13T06:54:45.821Z,1020.87
2023-05-13T06:55:45.994Z,1020.90
2023-05-13T06:56:46.140Z,1020.91
2023-05-13T06:57:46.320Z,1020.86
2023-05-13T06:58:46.485Z,1020.87
2023-05-13T06:59:46.664Z,1020.82
2023-05-13T07:00:46.953Z,1020.87
2023-05-13T07:01:46.998Z,1020.86
2023-05-13T07:02:47.205Z,1020.84
2023-05-13T07:03:47.429Z,1020.80
2023-05-13T07:04:47.548Z,1020.81
2023-05-13T07:05:47.711Z,1020.80
2023-05-13T07:06:47.883Z,1020.74
2023-05-13T07:07:48.072Z,1020.74
2023-05-13T07:08:48.199Z,1020.67
2023-05-13T07:09:48.387Z,1020.70
2023-05-13T07:10:48.540Z,1020.72
2023-05-13T07:11:48.728Z,1020.67
2023-05-13T07:12:48.864Z,1020.65
2023-05-13T07:13:49.041Z,1020.66
2023-05-13T07:14:49.222Z,1020.68
2023-05-13T07:15:49.363Z,1020.71
2023-05-13T07:16:51.494Z,1020.68
2023-05-13T07:17:49.802Z,1020.65
2023-05-13T07:18:49.961Z,1020.65
2023-05-13T07:19:50.107Z,1020.66
2023-05-13T07:20:50.246Z,1020.65
2023-05-13T07:21:50.413Z,1020.62
2023-05-13T07:22:50.663Z,1020.66
2023-05-13T07:23:50.733Z,1020.64
2023-05-13T07:24:50.895Z,1020.61
2023-05-13T07:25:51.087Z,1020.61
2023-05-13T07:26:51.234Z,1020.64
2023-05-13T07:27:51.408Z,1020.61
2023-05-13T07:28:51.550Z,1020.52
2023-05-13T07:29:51.714Z,1020.60
2023-05-13T07:30:51.906Z,1020.54
2023-05-13T07:31:52.052Z,1020.57
2023-05-13T07:32:53.889Z,1020.61
2023-05-13T07:33:52.399Z,1020.52
2023-05-13T07:34:52.553Z,1020.57
2023-05-13T07:35:52.717Z,1020.50
2023-05-13T07:36:52.876Z,1020.52
2023-05-13T07:37:53.052Z,1020.53
2023-05-13T07:38:53.210Z,1020.55
2023-05-13T07:39:53.399Z,1020.55
2023-05-13T07:40:53.578Z,1020.52
2023-05-13T07:41:53.731Z,1020.52
2023-05-13T07:42:53.913Z,1020.50
2023-05-13T07:43:54.087Z,1020.48
2023-05-13T07:44:54.260Z,1020.60
2023-05-13T07:45:54.441Z,1020.53
2023-05-13T07:46:54.605Z,1020.52
2023-05-13T07:47:54.790Z,1020.40
2023-05-13T07:48:54.920Z,1020.37
2023-05-13T07:49:55.086Z,1020.54
2023-05-13T07:50:55.257Z,1020.46
2023-05-13T07:51:55.433Z,1020.37
2023-05-13T07:52:55.607Z,1020.44
2023-05-13T07:53:55.770Z,1020.46
2023-05-13T07:54:55.946Z,1020.31
2023-05-13T07:55:56.194Z,1020.39
2023-05-13T07:56:56.339Z,1020.47
2023-05-13T07:57:56.484Z,1020.35
2023-05-13T07:58:56.677Z,1020.29
2023-05-13T07:59:56.841Z,1020.34
2023-05-13T08:00:57.028Z,1020.32
2023-05-13T08:01:57.215Z,1020.38
2023-05-13T08:02:57.444Z,1020.31
2023-05-13T08:03:57.708Z,1020.29
2023-05-13T08:04:57.743Z,1020.41
2023-05-13T08:05:57.885Z,1020.36
2023-05-13T08:06:58.051Z,1020.33
2023-05-13T08:07:58.207Z,1020.43
2023-05-13T08:08:58.395Z,1020.40
2023-05-13T08:09:58.545Z,1020.34
2023-05-13T08:10:58.814Z,1020.33
2023-05-13T08:11:58.982Z,1020.30
2023-05-13T08:12:59.074Z,1020.29
2023-05-13T08:13:59.260Z,1020.32
2023-05-13T08:14:59.410Z,1020.33
2023-05-13T08:15:59.589Z,1020.39
2023-05-13T08:16:59.751Z,1020.38
2023-05-13T08:17:59.962Z,1020.42
2023-05-13T08:19:00.241Z,1020.42
2023-05-13T08:20:00.337Z,1020.43
2023-05-13T08:21:00.434Z,1020.48
2023-05-13T08:22:00.611Z,1020.54
2023-05-13T08:23:00.784Z,1020.46
2023-05-13T08:24:00.970Z,1020.52
2023-05-13T08:25:01.239Z,1020.50
2023-05-13T08:26:01.283Z,1020.49
2023-05-13T08:27:01.460Z,1020.50
2023-05-13T08:28:01.639Z,1020.54
2023-05-13T08:29:01.801Z,1020.41
2023-05-13T08:30:01.943Z,1020.44
2023-05-13T08:31:02.106Z,1020.49
2023-05-13T08:32:02.298Z,1020.53
2023-05-13T08:33:02.488Z,1020.58
2023-05-13T08:34:02.650Z,1020.56
2023-05-13T08:35:02.817Z,1020.57
2023-05-13T08:36:02.982Z,1020.57
2023-05-13T08:37:03.155Z,1020.51
2023-05-13T08:38:03.331Z,1020.53
2023-05-13T08:39:03.482Z,1020.56
2023-05-13T08:40:03.662Z,1020.56
2023-05-13T08:41:03.816Z,1020.59
2023-05-13T08:42:04.005Z,1020.65
2023-05-13T08:43:04.192Z,1020.56
2023-05-13T08:44:04.358Z,1020.59
2023-05-13T08:45:04.574Z,1020.52
2023-05-13T08:46:04.770Z,1020.56
2023-05-13T08:47:04.889Z,1020.52
2023-05-13T08:48:05.100Z,1020.59
2023-05-13T08:49:05.234Z,1020.57
2023-05-13T08:50:05.398Z,1020.59
2023-05-13T08:51:05.581Z,1020.69
2023-05-13T08:52:05.758Z,1020.64
2023-05-13T08:53:05.910Z,1020.65
2023-05-13T08:54:06.086Z,1020.57
2023-05-13T08:55:06.233Z,1020.63
2023-05-13T08:56:06.413Z,1020.58
2023-05-13T08:57:06.595Z,1020.64
2023-05-13T08:58:06.753Z,1020.64
2023-05-13T08:59:06.917Z,1020.62
2023-05-13T09:00:07.096Z,1020.60
2023-05-13T09:01:07.283Z,1020.58
2023-05-13T09:02:07.417Z,1020.57
2023-05-13T09:03:07.622Z,1020.58
2023-05-13T09:04:07.745Z,1020.44
2023-05-13T09:05:07.991Z,1020.55
2023-05-13T09:06:08.083Z,1020.43
2023-05-13T09:07:08.234Z,1020.43
2023-05-13T09:08:08.389Z,1020.55
2023-05-13T09:09:08.590Z,1020.54
2023-05-13T09:10:08.820Z,1020.55
2023-05-13T09:11:08.953Z,1020.48
2023-05-13T09:12:09.137Z,1020.57
2023-05-13T09:13:09.294Z,1020.54
2023-05-13T09:14:09.465Z,1020.58
2023-05-13T09:15:09.632Z,1020.50
2023-05-13T09:16:09.860Z,1020.60
2023-05-13T09:17:09.976Z,1020.45
2023-05-13T09:18:10.211Z,1020.44
2023-05-13T09:19:10.367Z,1020.44
2023-05-13T09:20:10.486Z,1020.50
2023-05-13T09:21:10.639Z,1020.43
2023-05-13T09:22:10.792Z,1020.53
2023-05-13T09:23:11.005Z,1020.36
2023-05-13T09:24:11.682Z,1020.37
2023-05-13T09:25:11.333Z,1020.36
2023-05-13T09:26:11.473Z,1020.43
2023-05-13T09:27:11.653Z,1020.40
2023-05-13T09:28:11.826Z,1020.29
2023-05-13T09:29:12.003Z,1020.31
2023-05-13T09:30:12.180Z,1020.38
2023-05-13T09:31:12.364Z,1020.37
2023-05-13T09:32:12.516Z,1020.37
2023-05-13T09:33:12.807Z,1020.37
2023-05-13T09:34:12.885Z,1020.37
2023-05-13T09:35:13.060Z,1020.37
2023-05-13T09:36:13.241Z,1020.38
2023-05-13T09:37:13.398Z,1020.31
2023-05-13T09:38:13.566Z,1020.44
2023-05-13T09:39:13.726Z,1020.42
2023-05-13T09:40:13.899Z,1020.45
2023-05-13T09:41:14.052Z,1020.39
2023-05-13T09:42:14.238Z,1020.41
2023-05-13T09:43:14.397Z,1020.42
2023-05-13T09:44:14.583Z,1020.46
2023-05-13T09:45:14.733Z,1020.45
2023-05-13T09:46:14.912Z,1020.43
2023-05-13T09:47:15.176Z,1020.43
2023-05-13T09:48:15.288Z,1020.42
2023-05-13T09:49:15.492Z,1020.35
2023-05-13T09:50:15.641Z,1020.45
2023-05-13T09:51:15.830Z,1020.41
2023-05-13T09:52:15.979Z,1020.47
2023-05-13T09:53:16.171Z,1020.32
2023-05-13T09:54:16.332Z,1020.29
2023-05-13T09:55:16.547Z,1020.23
2023-05-13T09:56:16.696Z,1020.20
2023-05-13T09:57:16.866Z,1020.25
2023-05-13T09:58:17.037Z,1020.20
2023-05-13T09:59:17.265Z,1020.21
2023-05-13T10:00:28.973Z,1020.21
2023-05-13T10:01:18.591Z,1020.29
2023-05-13T10:02:17.728Z,1020.25
2023-05-13T10:03:17.939Z,1020.22
2023-05-13T10:04:18.174Z,1020.30
2023-05-13T10:05:18.286Z,1020.25
2023-05-13T10:06:18.425Z,1020.28
2023-05-13T10:07:18.643Z,1020.31
2023-05-13T10:08:18.804Z,1020.36
2023-05-13T10:09:18.976Z,1020.25
2023-05-13T10:10:19.203Z,1020.28
2023-05-13T10:11:19.320Z,1020.21
2023-05-13T10:12:19.531Z,1020.26
2023-05-13T10:13:19.640Z,1020.29
2023-05-13T10:14:19.843Z,1020.34
2023-05-13T10:15:20.035Z,1020.30
2023-05-13T10:16:20.206Z,1020.20
2023-05-13T10:17:20.350Z,1020.19
2023-05-13T10:18:20.555Z,1020.15
2023-05-13T10:19:20.732Z,1020.24
2023-05-13T10:20:20.990Z,1020.30
2023-05-13T10:21:21.031Z,1020.23
2023-05-13T10:22:21.181Z,1020.16
2023-05-13T10:23:21.349Z,1020.26
2023-05-13T10:24:21.505Z,1020.20
2023-05-13T10:25:21.658Z,1020.11
2023-05-13T10:26:21.839Z,1020.15
2023-05-13T10:27:21.990Z,1020.11
2023-05-13T10:28:22.178Z,1020.03
2023-05-13T10:29:22.353Z,1020.09
2023-05-13T10:30:22.694Z,1020.13
2023-05-13T10:31:22.727Z,1020.11
2023-05-13T10:32:22.880Z,1020.06
2023-05-13T10:33:23.053Z,1020.22
2023-05-13T10:34:23.228Z,1020.19
2023-05-13T10:35:23.402Z,1020.20
2023-05-13T10:36:23.548Z,1020.17
2023-05-13T10:37:23.750Z,1020.23
2023-05-13T10:38:23.890Z,1020.19
2023-05-13T10:39:24.064Z,1020.17
2023-05-13T10:40:24.572Z,1020.16
2023-05-13T10:41:24.431Z,1020.21
2023-05-13T10:42:24.609Z,1020.16
2023-05-13T10:43:24.778Z,1020.17
2023-05-13T10:44:24.936Z,1020.09
2023-05-13T10:45:25.145Z,1020.05
2023-05-13T10:46:25.351Z,1020.10
2023-05-13T10:47:25.551Z,1020.23
2023-05-13T10:48:25.774Z,1020.09
2023-05-13T10:49:25.852Z,1020.12
2023-05-13T10:50:26.067Z,1020.09
2023-05-13T10:51:26.219Z,1020.07
2023-05-13T10:52:26.333Z,1020.06
2023-05-13T10:53:26.509Z,1020.02
2023-05-13T10:54:26.655Z,1019.98
2023-05-13T10:55:26.861Z,1019.98
2023-05-13T10:56:27.039Z,1019.98
2023-05-13T10:57:27.183Z,1019.95
2023-05-13T10:58:27.363Z,1020.19
2023-05-13T10:59:27.513Z,1020.09
2023-05-13T11:00:27.687Z,1020.11
2023-05-13T11:01:27.896Z,1020.13
2023-05-13T11:02:28.068Z,1020.18
2023-05-13T11:03:29.292Z,1020.13
2023-05-13T11:04:28.380Z,1020.12
2023-05-13T11:05:28.577Z,1020.11
2023-05-13T11:06:28.696Z,1020.22
2023-05-13T11:07:28.877Z,1020.14
2023-05-13T11:08:29.048Z,1020.05
2023-05-13T11:09:29.225Z,1020.10
2023-05-13T11:10:29.414Z,1020.00
2023-05-13T11:11:29.591Z,1020.04
2023-05-13T11:12:29.728Z,1020.04
2023-05-13T11:13:29.897Z,1020.10
2023-05-13T11:14:30.085Z,1019.95
2023-05-13T11:15:30.264Z,1020.06
2023-05-13T11:16:30.448Z,1020.07
2023-05-13T11:17:30.599Z,1020.03
2023-05-13T11:18:30.774Z,1019.96
2023-05-13T11:19:30.944Z,1019.92
2023-05-13T11:20:37.379Z,1019.91
2023-05-13T11:21:32.273Z,1019.91
2023-05-13T11:22:31.427Z,1019.91
2023-05-13T11:23:31.595Z,1019.97
2023-05-13T11:24:31.744Z,1020.00
2023-05-13T11:25:31.907Z,1019.97
2023-05-13T11:26:32.080Z,1019.94
2023-05-13T11:27:32.241Z,1019.87
2023-05-13T11:28:32.435Z,1019.96
2023-05-13T11:29:32.632Z,1019.92
2023-05-13T11:30:32.777Z,1019.92
2023-05-13T11:31:32.991Z,1019.89
2023-05-13T11:32:33.114Z,1019.87
2023-05-13T11:33:33.325Z,1019.84
2023-05-13T11:34:33.489Z,1019.88
2023-05-13T11:35:33.649Z,1019.91
2023-05-13T11:36:33.816Z,1019.98
2023-05-13T11:37:34.007Z,1019.89
2023-05-13T11:38:34.184Z,1019.92
2023-05-13T11:39:34.317Z,1019.91
2023-05-13T11:40:34.520Z,1019.81
2023-05-13T11:41:34.723Z,1019.84
2023-05-13T11:42:34.861Z,1019.85
2023-05-13T11:43:35.024Z,1019.81
2023-05-13T11:44:35.218Z,1019.78
2023-05-13T11:45:35.390Z,1019.84
2023-05-13T11:46:35.559Z,1019.78
2023-05-13T11:47:35.767Z,1019.84
2023-05-13T11:48:35.872Z,1019.85
2023-05-13T11:49:36.046Z,1019.88
2023-05-13T11:50:36.226Z,1019.90
2023-05-13T11:51:36.403Z,1019.86
2023-05-13T11:52:36.574Z,1019.87
2023-05-13T11:53:36.758Z,1019.79
2023-05-13T11:54:36.931Z,1019.81
2023-05-13T11:55:37.087Z,1019.77
2023-05-13T11:56:37.284Z,1019.74
2023-05-13T11:57:37.429Z,1019.76
2023-05-13T11:58:37.589Z,1019.74
2023-05-13T11:59:47.601Z,1019.71
2023-05-13T12:00:38.969Z,1019.71
2023-05-13T12:01:38.184Z,1019.72
2023-05-13T12:02:38.489Z,1019.71
2023-05-13T12:03:38.490Z,1019.73
2023-05-13T12:04:38.636Z,1019.66
2023-05-13T12:05:38.867Z,1019.71
2023-05-13T12:06:38.976Z,1019.70
2023-05-13T12:07:39.144Z,1019.67